Durham Tees Valley Airport

Airport
ICAO code: 
EGNV
IATA Code: 
MME
Summary
ICAO Region: 
EUR
Territory: 
Location: 
Middleton St. George, Darlington, England
Serving: 
Middlesbrough
Elevation: 
120 ft
Coordinates: 
Aerial View: 
54° 30' 33.001" N, 1° 25' 45.001" W
Metar
Observation
EGNV 162320Z 23005KT CAVOK 01/M01 Q1031
Station
Tees-Side
Date/Time
2022-01-16 23:20:00
Wind direction
230°
Wind speed
05 kts
Lowest cloud amount
clouds and visibility OK
Temperature
1°C
Dew point
-1°C
Humidity
86%
QNH
1031 hPa
Weather condition
n/a

Description

Durham Tees Valley Airport is a small international airport located near Darlington, North East England. About 16 km southwest of Middlesbrough and 39 km south of Durham. The airport serves County Durham, Teesside and parts of North Yorkshire. The airport is still widely recognised by its previous name, Teesside International Airport.

Climatology

Temperate Marine climate/Oceanic climate (Köppen climate classification Cfb). Moderately cool summer and comparatively warm winter with a temperature range of only 14°C. Prevailing south-westerly winds from the Atlantic Ocean.

Runways

Designator Length Width Surface Rops
5/23 2291 46 ASP Yes/Yes
Airport map: 
Aerial View: 

Accidents and Serious Incidents at or in the vicinity of EGNV

SKYbrary Partners:

Safety knowledge contributed by: